createdAt,value
2023-02-14T00:00:02.744Z,40.47
2023-02-14T00:02:52.672Z,40.08
2023-02-14T00:05:41.393Z,35.50
2023-02-14T00:08:29.943Z,35.42
2023-02-14T00:11:18.426Z,36.55
2023-02-14T00:14:25.023Z,33.30
2023-02-14T00:17:13.611Z,32.58
2023-02-14T00:20:03.610Z,31.93
2023-02-14T00:22:52.213Z,31.53
2023-02-14T00:25:40.740Z,31.80
2023-02-14T00:28:29.220Z,30.75
2023-02-14T00:31:17.737Z,31.40
2023-02-14T00:34:07.100Z,30.88
2023-02-14T00:36:57.151Z,34.17
2023-02-14T00:39:45.687Z,33.45
2023-02-14T00:42:34.229Z,31.67
2023-02-14T00:45:22.711Z,33.10
2023-02-14T00:48:11.498Z,33.10
2023-02-14T00:51:00.422Z,32.45
2023-02-14T00:53:51.619Z,36.25
2023-02-14T00:56:40.427Z,30.02
2023-02-14T00:59:28.941Z,31.00
2023-02-14T01:02:17.448Z,30.23
2023-02-14T01:05:06.634Z,30.73
2023-02-14T01:07:55.292Z,29.48
2023-02-14T01:10:45.737Z,30.80
2023-02-14T01:13:34.298Z,37.27
2023-02-14T01:16:25.569Z,35.25
2023-02-14T01:19:14.172Z,33.72
2023-02-14T01:22:02.576Z,34.45
2023-02-14T01:24:51.685Z,35.10
2023-02-14T01:27:41.575Z,36.38
2023-02-14T01:30:30.290Z,33.83
2023-02-14T01:33:18.869Z,34.17
2023-02-14T01:36:08.409Z,34.90
2023-02-14T01:38:58.498Z,33.13
2023-02-14T01:41:49.111Z,35.95
2023-02-14T01:45:00.892Z,33.78
2023-02-14T01:47:53.427Z,34.17
2023-02-14T01:50:45.646Z,32.63
2023-02-14T01:53:34.568Z,33.55
2023-02-14T01:56:28.790Z,35.33
2023-02-14T01:59:22.070Z,35.03
2023-02-14T02:02:12.382Z,34.88
2023-02-14T02:05:01.092Z,34.13
2023-02-14T02:07:49.914Z,35.05
2023-02-14T02:10:38.499Z,35.40
2023-02-14T02:13:27.039Z,31.92
2023-02-14T02:16:28.024Z,34.20
2023-02-14T02:20:02.565Z,35.10
2023-02-14T02:23:45.033Z,33.33
2023-02-14T02:27:08.808Z,33.60
2023-02-14T02:30:34.888Z,32.78
2023-02-14T02:34:08.820Z,32.38
2023-02-14T02:37:10.346Z,33.17
2023-02-14T02:40:11.965Z,34.05
2023-02-14T02:43:08.417Z,31.75
2023-02-14T02:46:20.712Z,26.67
2023-02-14T02:49:38.529Z,31.65
2023-02-14T02:52:54.803Z,31.38
2023-02-14T02:56:03.402Z,28.30
2023-02-14T02:58:55.815Z,29.98
2023-02-14T03:01:44.522Z,30.15
2023-02-14T03:04:53.307Z,29.40
2023-02-14T03:07:45.397Z,29.75
2023-02-14T03:10:39.042Z,29.42
2023-02-14T03:13:39.945Z,28.40
2023-02-14T03:16:39.689Z,31.63
2023-02-14T03:20:00.701Z,28.90
2023-02-14T03:23:02.280Z,30.50
2023-02-14T03:26:00.864Z,28.98
2023-02-14T03:28:54.820Z,30.73
2023-02-14T03:31:54.494Z,26.70
2023-02-14T03:34:54.294Z,26.55
2023-02-14T03:37:49.135Z,25.73
2023-02-14T03:40:43.781Z,26.40
2023-02-14T03:43:34.924Z,27.03
2023-02-14T03:46:27.962Z,23.70
2023-02-14T03:49:19.724Z,24.50
2023-02-14T03:52:10.949Z,24.58
2023-02-14T03:55:01.146Z,23.60
2023-02-14T03:57:57.033Z,23.95
2023-02-14T04:00:48.595Z,26.67
2023-02-14T04:03:40.848Z,24.73
2023-02-14T04:06:29.461Z,26.05
2023-02-14T04:09:18.016Z,27.88
2023-02-14T04:12:07.334Z,24.83
2023-02-14T04:14:57.340Z,23.23
2023-02-14T04:18:03.353Z,23.02
2023-02-14T04:20:51.955Z,24.02
2023-02-14T04:23:40.474Z,23.10
2023-02-14T04:26:29.128Z,24.00
2023-02-14T04:29:17.617Z,22.67
2023-02-14T04:32:09.170Z,22.40
2023-02-14T04:34:57.778Z,23.50
2023-02-14T04:37:46.774Z,23.83
2023-02-14T04:40:35.320Z,28.73
2023-02-14T04:43:24.040Z,22.80
2023-02-14T04:46:12.561Z,24.77
2023-02-14T04:49:02.515Z,25.30
2023-02-14T04:51:51.065Z,26.58
2023-02-14T04:54:39.696Z,26.58
2023-02-14T04:57:28.290Z,26.90
2023-02-14T05:00:17.596Z,28.23
2023-02-14T05:03:06.114Z,30.00
2023-02-14T05:05:55.930Z,28.63
2023-02-14T05:08:44.520Z,28.08
2023-02-14T05:11:33.178Z,28.35
2023-02-14T05:14:21.888Z,26.45
2023-02-14T05:17:10.430Z,26.38
2023-02-14T05:19:59.026Z,24.95
2023-02-14T05:22:49.074Z,27.30
2023-02-14T05:25:37.628Z,25.17
2023-02-14T05:28:26.245Z,23.73
2023-02-14T05:31:15.030Z,22.48
2023-02-14T05:34:03.931Z,22.27
2023-02-14T05:36:52.462Z,22.90
2023-02-14T05:39:42.421Z,23.88
2023-02-14T05:42:31.014Z,24.67
2023-02-14T05:45:19.752Z,23.20
2023-02-14T05:48:08.274Z,25.33
2023-02-14T05:50:56.811Z,27.20
2023-02-14T05:53:45.393Z,25.58
2023-02-14T05:56:35.309Z,25.23
2023-02-14T05:59:23.979Z,25.73
2023-02-14T06:02:14.218Z,25.50
2023-02-14T06:05:02.893Z,26.25
2023-02-14T06:07:52.354Z,22.90
2023-02-14T06:10:40.952Z,22.17
2023-02-14T06:13:31.090Z,24.60
2023-02-14T06:16:19.842Z,25.17
2023-02-14T06:19:08.454Z,24.42
2023-02-14T06:21:57.010Z,23.48
2023-02-14T06:24:45.795Z,24.98
2023-02-14T06:27:34.857Z,21.85
2023-02-14T06:30:25.588Z,22.50
2023-02-14T06:33:14.190Z,22.05
2023-02-14T06:36:02.753Z,23.23
2023-02-14T06:38:51.311Z,25.13
2023-02-14T06:41:39.794Z,23.95
2023-02-14T06:44:28.345Z,24.00
2023-02-14T06:47:18.798Z,23.38
2023-02-14T06:50:08.621Z,24.70
2023-02-14T06:52:57.230Z,24.00
2023-02-14T06:55:45.762Z,24.48
2023-02-14T06:58:34.327Z,23.80
2023-02-14T07:01:22.993Z,22.27
2023-02-14T07:04:12.940Z,22.25
2023-02-14T07:07:01.493Z,23.80
2023-02-14T07:09:50.095Z,22.53
2023-02-14T07:12:39.643Z,24.48
2023-02-14T07:15:28.460Z,22.70
2023-02-14T07:18:16.998Z,23.20
2023-02-14T07:21:07.344Z,22.73
2023-02-14T07:23:55.823Z,23.52
2023-02-14T07:26:44.411Z,22.33
2023-02-14T07:29:32.869Z,22.83
2023-02-14T07:32:21.442Z,23.77
2023-02-14T07:35:10.779Z,21.90
2023-02-14T07:38:00.657Z,23.27
2023-02-14T07:40:49.211Z,22.13
2023-02-14T07:43:38.883Z,21.88
2023-02-14T07:46:27.503Z,21.98
2023-02-14T07:49:16.309Z,22.80
2023-02-14T07:52:06.007Z,22.33
2023-02-14T07:54:55.961Z,21.48
2023-02-14T07:57:44.508Z,21.23
2023-02-14T08:00:33.091Z,21.80
2023-02-14T08:03:21.632Z,20.30
2023-02-14T08:06:10.332Z,20.30
2023-02-14T08:08:58.911Z,18.88
2023-02-14T08:12:06.177Z,20.23
2023-02-14T08:14:54.745Z,20.35
2023-02-14T08:17:43.534Z,21.63
2023-02-14T08:20:32.109Z,20.83
2023-02-14T08:23:21.706Z,21.63
2023-02-14T08:26:10.736Z,19.98
2023-02-14T08:29:02.316Z,19.08
2023-02-14T08:31:51.339Z,21.23
2023-02-14T08:34:40.001Z,20.58
2023-02-14T08:37:28.522Z,19.77
2023-02-14T08:40:17.042Z,18.55
2023-02-14T08:43:05.939Z,21.02
2023-02-14T08:45:55.987Z,22.23
2023-02-14T08:48:44.634Z,24.13
2023-02-14T08:51:33.181Z,22.60
2023-02-14T08:54:21.703Z,21.17
2023-02-14T08:57:10.355Z,24.52
2023-02-14T08:59:58.941Z,24.35
2023-02-14T09:02:52.021Z,28.90
2023-02-14T09:05:40.658Z,33.15
2023-02-14T09:08:29.773Z,30.20
2023-02-14T09:11:22.123Z,33.37
2023-02-14T09:14:10.874Z,27.98
2023-02-14T09:17:01.503Z,34.90
2023-02-14T09:19:51.465Z,36.20
2023-02-14T09:22:40.497Z,36.50
2023-02-14T09:25:28.981Z,33.03
2023-02-14T09:28:17.434Z,36.85
2023-02-14T09:31:11.945Z,34.37
2023-02-14T09:34:18.355Z,36.28
2023-02-14T09:37:08.260Z,31.95
2023-02-14T09:39:56.821Z,42.13
2023-02-14T09:43:01.867Z,39.07
2023-02-14T09:45:55.802Z,33.55
2023-02-14T09:48:48.111Z,37.17
2023-02-14T09:51:38.226Z,35.83
2023-02-14T09:54:29.516Z,40.05
2023-02-14T09:57:26.545Z,35.38
2023-02-14T10:00:22.417Z,43.30
2023-02-14T10:03:50.121Z,42.40
2023-02-14T10:06:49.264Z,40.63
2023-02-14T10:09:59.125Z,39.70
2023-02-14T10:12:52.188Z,38.03
2023-02-14T10:15:44.758Z,40.42
2023-02-14T10:18:39.627Z,38.45
2023-02-14T10:21:32.975Z,36.00
2023-02-14T10:24:27.131Z,33.05
2023-02-14T10:27:23.135Z,39.95
2023-02-14T10:30:16.453Z,38.47
2023-02-14T10:33:09.225Z,33.42
2023-02-14T10:36:02.762Z,33.53
2023-02-14T10:39:02.711Z,35.38
2023-02-14T10:41:55.916Z,39.55
2023-02-14T10:44:55.984Z,38.10
2023-02-14T10:47:51.368Z,39.55
2023-02-14T10:50:48.019Z,30.65
2023-02-14T10:53:43.061Z,31.38
2023-02-14T10:56:39.193Z,33.83
2023-02-14T10:59:34.376Z,34.43
2023-02-14T11:02:27.852Z,38.63
2023-02-14T11:05:26.888Z,34.47
2023-02-14T11:08:26.386Z,30.30
2023-02-14T11:11:21.381Z,31.00
2023-02-14T11:14:26.153Z,35.63
2023-02-14T11:17:31.530Z,33.03
2023-02-14T11:20:30.359Z,35.57
2023-02-14T11:23:25.219Z,35.05
2023-02-14T11:26:21.527Z,31.70
2023-02-14T11:29:14.889Z,32.40
2023-02-14T11:32:16.913Z,29.73
2023-02-14T11:35:09.333Z,32.90
2023-02-14T11:37:59.143Z,38.33
2023-02-14T11:40:55.809Z,32.50
2023-02-14T11:43:45.716Z,30.65
2023-02-14T11:46:44.292Z,37.63
2023-02-14T11:49:39.618Z,33.33
2023-02-14T11:52:30.152Z,33.42
2023-02-14T11:55:27.964Z,31.53
2023-02-14T11:58:32.160Z,32.05
2023-02-14T12:01:25.727Z,31.02
2023-02-14T12:04:18.859Z,33.63
2023-02-14T12:07:20.609Z,31.13
2023-02-14T12:10:23.986Z,30.20
2023-02-14T12:13:25.643Z,34.38
2023-02-14T12:16:27.463Z,32.13
2023-02-14T12:19:19.255Z,32.55
2023-02-14T12:22:08.362Z,29.13
2023-02-14T12:25:07.583Z,27.67
2023-02-14T12:28:04.203Z,27.48
2023-02-14T12:30:52.872Z,27.52
2023-02-14T12:33:42.007Z,30.75
2023-02-14T12:36:46.091Z,28.98
2023-02-14T12:39:40.934Z,34.13
2023-02-14T12:42:43.888Z,31.77
2023-02-14T12:45:43.772Z,33.10
2023-02-14T12:48:47.190Z,28.85
2023-02-14T12:51:44.032Z,33.60
2023-02-14T12:54:55.449Z,34.63
2023-02-14T12:57:51.009Z,29.50
2023-02-14T13:00:52.530Z,37.47
2023-02-14T13:04:01.136Z,36.35
2023-02-14T13:06:52.843Z,31.30
2023-02-14T13:09:50.364Z,34.63
2023-02-14T13:12:46.962Z,38.17
2023-02-14T13:15:43.652Z,36.63
2023-02-14T13:18:45.037Z,36.92
2023-02-14T13:21:38.226Z,35.90
2023-02-14T13:24:30.907Z,40.75
2023-02-14T13:27:22.564Z,37.42
2023-02-14T13:30:19.662Z,35.65
2023-02-14T13:33:19.594Z,33.43
2023-02-14T13:36:12.292Z,29.65
2023-02-14T13:39:01.233Z,33.70
2023-02-14T13:41:49.794Z,33.25
2023-02-14T13:44:46.465Z,35.20
2023-02-14T13:47:34.907Z,33.33
2023-02-14T13:50:25.080Z,34.20
2023-02-14T13:53:14.010Z,30.83
2023-02-14T13:56:04.178Z,37.60
2023-02-14T13:58:55.882Z,38.90
2023-02-14T14:01:48.178Z,37.17
2023-02-14T14:04:38.667Z,37.92
2023-02-14T14:07:31.385Z,34.55
2023-02-14T14:10:44.896Z,35.40
2023-02-14T14:13:56.023Z,33.72
2023-02-14T14:16:58.602Z,36.17
2023-02-14T14:19:47.736Z,32.50
2023-02-14T14:22:48.627Z,37.38
2023-02-14T14:25:39.722Z,33.60
2023-02-14T14:28:30.623Z,33.33
2023-02-14T14:31:21.312Z,31.05
2023-02-14T14:34:17.255Z,30.67
2023-02-14T14:37:07.311Z,30.55
2023-02-14T14:39:58.291Z,32.60
2023-02-14T14:42:48.677Z,31.08
2023-02-14T14:45:37.243Z,30.48
2023-02-14T14:48:31.917Z,32.35
2023-02-14T14:51:25.984Z,30.17
2023-02-14T14:54:19.122Z,30.73
2023-02-14T14:57:15.100Z,29.67
2023-02-14T15:00:19.092Z,29.38
2023-02-14T15:03:08.868Z,32.10
2023-02-14T15:06:05.544Z,28.10
2023-02-14T15:08:54.928Z,25.83
2023-02-14T15:12:01.835Z,28.65
2023-02-14T15:14:54.882Z,28.02
2023-02-14T15:17:44.296Z,27.15
2023-02-14T15:20:33.191Z,25.95
2023-02-14T15:23:23.968Z,26.42
2023-02-14T15:26:18.306Z,24.73
2023-02-14T15:29:08.515Z,24.50
2023-02-14T15:32:02.837Z,25.52
2023-02-14T15:34:52.006Z,23.60
2023-02-14T15:37:40.978Z,28.75
2023-02-14T15:40:32.304Z,26.25
2023-02-14T15:43:33.173Z,28.67
2023-02-14T15:46:28.133Z,26.90
2023-02-14T15:49:22.288Z,26.58
2023-02-14T15:52:14.096Z,31.40
2023-02-14T15:55:02.680Z,27.23
2023-02-14T15:57:56.760Z,26.17
2023-02-14T16:00:45.674Z,27.67
2023-02-14T16:03:37.156Z,28.75
2023-02-14T16:06:36.864Z,28.35
2023-02-14T16:09:28.526Z,29.00
2023-02-14T16:12:32.497Z,27.30
2023-02-14T16:15:22.797Z,29.50
2023-02-14T16:18:19.965Z,26.42
2023-02-14T16:21:18.064Z,25.23
2023-02-14T16:24:14.225Z,27.73
2023-02-14T16:27:06.913Z,26.58
2023-02-14T16:29:55.407Z,28.85
2023-02-14T16:32:44.234Z,27.73
2023-02-14T16:35:33.143Z,25.83
2023-02-14T16:38:22.681Z,27.45
2023-02-14T16:41:20.259Z,31.13
2023-02-14T16:44:08.955Z,29.30
2023-02-14T16:46:57.673Z,26.35
2023-02-14T16:49:46.813Z,25.75
2023-02-14T16:52:35.897Z,26.02
2023-02-14T16:55:28.833Z,27.20
2023-02-14T16:58:19.552Z,26.30
2023-02-14T17:01:08.328Z,24.48
2023-02-14T17:03:57.096Z,26.85
2023-02-14T17:06:48.423Z,26.63
2023-02-14T17:09:41.318Z,27.80
2023-02-14T17:12:32.071Z,29.52
2023-02-14T17:15:24.489Z,30.13
2023-02-14T17:18:15.082Z,28.75
2023-02-14T17:21:04.026Z,30.88
2023-02-14T17:23:53.441Z,27.83
2023-02-14T17:26:42.115Z,28.88
2023-02-14T17:29:31.058Z,29.05
2023-02-14T17:32:21.286Z,27.67
2023-02-14T17:35:10.837Z,29.40
2023-02-14T17:37:59.702Z,30.65
2023-02-14T17:40:48.411Z,32.35
2023-02-14T17:43:37.127Z,33.85
2023-02-14T17:46:25.877Z,31.67
2023-02-14T17:49:16.092Z,30.80
2023-02-14T17:52:04.861Z,30.67
2023-02-14T17:54:53.782Z,30.58
2023-02-14T17:57:42.500Z,29.73
2023-02-14T18:00:31.244Z,32.28
2023-02-14T18:03:20.344Z,34.70
2023-02-14T18:06:11.954Z,34.35
2023-02-14T18:09:00.581Z,36.40
2023-02-14T18:11:50.388Z,34.00
2023-02-14T18:14:38.839Z,32.25
2023-02-14T18:17:28.109Z,34.63
2023-02-14T18:20:16.637Z,33.95
2023-02-14T18:23:07.272Z,32.67
2023-02-14T18:25:57.872Z,35.37
2023-02-14T18:28:46.659Z,31.07
2023-02-14T18:31:36.597Z,35.33
2023-02-14T18:34:25.232Z,33.07
2023-02-14T18:37:15.195Z,34.73
2023-02-14T18:40:05.213Z,34.07
2023-02-14T18:42:53.659Z,34.10
2023-02-14T18:45:42.189Z,33.63
2023-02-14T18:48:31.679Z,34.87
2023-02-14T18:51:22.550Z,33.93
2023-02-14T18:54:11.225Z,32.73
2023-02-14T18:57:01.020Z,30.70
2023-02-14T18:59:49.478Z,33.77
2023-02-14T19:02:38.277Z,29.33
2023-02-14T19:05:27.106Z,32.57
2023-02-14T19:08:15.728Z,31.90
2023-02-14T19:11:04.683Z,29.80
2023-02-14T19:13:56.612Z,31.60
2023-02-14T19:16:50.421Z,30.27
2023-02-14T19:19:39.387Z,32.13
2023-02-14T19:22:27.893Z,32.13
2023-02-14T19:25:16.332Z,30.60
2023-02-14T19:28:06.465Z,29.70
2023-02-14T19:31:00.093Z,33.13
2023-02-14T19:33:49.377Z,32.00
2023-02-14T19:36:37.940Z,34.53
2023-02-14T19:39:29.369Z,30.10
2023-02-14T19:42:17.803Z,30.83
2023-02-14T19:45:07.579Z,32.77
2023-02-14T19:47:59.329Z,29.53
2023-02-14T19:50:47.861Z,32.33
2023-02-14T19:53:36.905Z,30.60
2023-02-14T19:56:27.342Z,33.27
2023-02-14T19:59:20.238Z,32.70
2023-02-14T20:02:15.043Z,29.17
2023-02-14T20:05:05.428Z,31.23
2023-02-14T20:07:55.431Z,32.80
2023-02-14T20:10:44.153Z,31.93
2023-02-14T20:13:32.588Z,32.23
2023-02-14T20:16:21.093Z,32.47
2023-02-14T20:19:12.813Z,32.70
2023-02-14T20:22:03.116Z,31.40
2023-02-14T20:24:52.387Z,30.33
2023-02-14T20:27:40.840Z,30.27
2023-02-14T20:30:29.369Z,31.70
2023-02-14T20:33:18.262Z,29.17
2023-02-14T20:36:08.076Z,28.77
2023-02-14T20:38:58.591Z,28.07
2023-02-14T20:41:49.960Z,28.70
2023-02-14T20:44:39.017Z,28.57
2023-02-14T20:47:28.654Z,26.57
2023-02-14T20:50:17.340Z,28.87
2023-02-14T20:53:05.853Z,28.60
2023-02-14T20:55:55.692Z,27.60
2023-02-14T20:58:44.327Z,29.67
2023-02-14T21:01:32.885Z,28.17
2023-02-14T21:04:22.384Z,27.37
2023-02-14T21:07:11.294Z,26.63
2023-02-14T21:10:00.546Z,29.90
2023-02-14T21:12:52.838Z,30.27
2023-02-14T21:15:41.450Z,27.03
2023-02-14T21:18:30.687Z,26.37
2023-02-14T21:21:21.707Z,28.47
2023-02-14T21:24:14.703Z,23.57
2023-02-14T21:27:05.030Z,25.23
2023-02-14T21:29:55.135Z,23.17
2023-02-14T21:32:43.555Z,21.23
2023-02-14T21:35:34.118Z,21.60
2023-02-14T21:38:22.957Z,22.07
2023-02-14T21:41:13.479Z,21.53
2023-02-14T21:44:02.900Z,23.80
2023-02-14T21:46:53.013Z,24.20
2023-02-14T21:49:58.981Z,23.37
2023-02-14T21:52:47.453Z,23.30
2023-02-14T21:55:37.820Z,24.80
2023-02-14T21:58:26.254Z,24.93
2023-02-14T22:01:17.956Z,29.40
2023-02-14T22:04:09.834Z,26.90
2023-02-14T22:06:58.369Z,27.43
2023-02-14T22:09:47.411Z,27.43
2023-02-14T22:12:35.910Z,28.23
2023-02-14T22:15:24.888Z,24.07
2023-02-14T22:18:13.331Z,25.73
2023-02-14T22:21:04.415Z,25.60
2023-02-14T22:23:52.966Z,25.83
2023-02-14T22:26:41.743Z,27.83
2023-02-14T22:29:30.238Z,25.90
2023-02-14T22:32:18.806Z,26.20
2023-02-14T22:35:08.048Z,24.77
2023-02-14T22:37:58.001Z,25.50
2023-02-14T22:40:46.520Z,25.83
2023-02-14T22:43:35.339Z,22.87
2023-02-14T22:46:26.491Z,24.60
2023-02-14T22:49:15.577Z,25.73
2023-02-14T22:52:04.126Z,25.77
2023-02-14T22:54:54.872Z,25.50
2023-02-14T22:57:43.325Z,26.33
2023-02-14T23:00:32.810Z,25.07
2023-02-14T23:03:21.353Z,26.57
2023-02-14T23:06:09.942Z,26.37
2023-02-14T23:08:58.947Z,21.90
2023-02-14T23:11:49.208Z,23.07
2023-02-14T23:14:55.011Z,22.10
2023-02-14T23:18:00.829Z,23.77
2023-02-14T23:21:07.154Z,25.20
2023-02-14T23:23:55.634Z,25.87
2023-02-14T23:26:44.197Z,23.60
2023-02-14T23:29:34.466Z,21.37
2023-02-14T23:32:23.228Z,22.97
2023-02-14T23:35:12.022Z,22.50
2023-02-14T23:38:00.539Z,23.60
2023-02-14T23:41:06.471Z,24.07
2023-02-14T23:43:54.939Z,24.37
2023-02-14T23:46:44.946Z,22.47
2023-02-14T23:49:35.636Z,20.47
2023-02-14T23:52:24.226Z,23.70
2023-02-14T23:55:13.090Z,23.98
2023-02-14T23:58:01.931Z,23.50
